Time;durP1;ratioP1;P1;durP2;ratioP2;P2;SDS_P1;SDS_P2;PMS_P1;PMS_P2;Temp;Humidity;BMP_temperature;BMP_pressure;BME280_temperature;BME280_humidity;BME280_pressure;Samples;Min_cycle;Max_cycle;Signal;HPM_P1;HPM_P2
2023/01/11 00:01:20;;;;;;;0.22;0.22;;;;;;;15.34;72.43;100584.22;5013267;28;20101;-71
2023/01/11 00:03:46;;;;;;;0.20;0.20;;;;;;;15.28;72.09;100574.44;4995524;28;20457;-72
2023/01/11 00:06:12;;;;;;;0.20;0.20;;;;;;;15.07;73.13;100591.66;5013429;28;20037;-72
2023/01/11 00:08:37;;;;;;;0.20;0.20;;;;;;;16.16;69.18;100581.59;5012978;28;20030;-73
2023/01/11 00:11:03;;;;;;;0.20;0.20;;;;;;;15.91;70.64;100579.66;5012824;28;20049;-72
2023/01/11 00:13:29;;;;;;;0.17;0.17;;;;;;;15.32;72.28;100578.25;5013257;28;20033;-72
2023/01/11 00:15:55;;;;;;;0.10;0.10;;;;;;;15.65;70.58;100569.78;5013134;28;20155;-71
2023/01/11 00:18:22;;;;;;;0.20;0.20;;;;;;;15.21;71.68;100579.28;5013423;28;20030;-71
2023/01/11 00:20:47;;;;;;;0.25;0.25;;;;;;;15.42;71.86;100570.22;5013061;28;20033;-71
2023/01/11 00:23:13;;;;;;;0.10;0.10;;;;;;;15.61;70.63;100574.94;4993914;28;20517;-72
2023/01/11 00:25:39;;;;;;;0.20;0.20;;;;;;;15.92;70.51;100575.84;4994692;28;20065;-71
2023/01/11 00:28:05;;;;;;;0.28;0.28;;;;;;;15.91;70.64;100566.09;5012941;28;20037;-72
2023/01/11 00:30:31;;;;;;;0.10;0.10;;;;;;;16.08;69.69;100571.31;5013025;28;20026;-72
2023/01/11 00:32:58;;;;;;;0.20;0.20;;;;;;;16.53;68.39;100560.50;5012742;28;20485;-71
2023/01/11 00:35:25;;;;;;;0.20;0.20;;;;;;;16.04;69.63;100562.88;5012904;28;20045;-72
2023/01/11 00:37:52;;;;;;;0.30;0.30;;;;;;;16.19;68.97;100549.38;5011647;28;20426;-72
2023/01/11 00:40:18;;;;;;;0.20;0.20;;;;;;;15.97;69.38;100559.59;5012972;28;20040;-72
2023/01/11 00:48:12;;;;;;;0.10;0.10;;;;;;;15.90;71.64;100542.78;5012178;28;20413;-72
2023/01/11 00:50:39;;;;;;;0.20;0.20;;;;;;;15.33;73.26;100547.41;5012323;28;20129;-72
2023/01/11 00:53:07;;;;;;;0.30;0.30;;;;;;;15.65;73.13;100537.28;4994962;28;20045;-71
2023/01/11 00:55:33;;;;;;;0.30;0.30;;;;;;;16.00;70.99;100528.44;5011679;28;20034;-72
2023/01/11 00:57:59;;;;;;;0.10;0.10;;;;;;;15.83;71.60;100534.91;5011740;28;20445;-73
2023/01/11 01:00:26;;;;;;;0.30;0.30;;;;;;;15.73;71.98;100534.06;5012449;28;20029;-72
2023/01/11 01:02:52;;;;;;;0.30;0.30;;;;;;;16.40;70.62;100534.72;4995680;28;20030;-73
2023/01/11 01:05:17;;;;;;;0.20;0.20;;;;;;;15.63;73.82;100531.31;5011867;28;20068;-72
2023/01/11 01:07:43;;;;;;;0.28;0.28;;;;;;;15.61;73.02;100537.00;5012127;28;20088;-72
2023/01/11 01:10:12;;;;;;;0.32;0.32;;;;;;;16.20;71.38;100540.13;5011912;28;20137;-73
2023/01/11 01:15:21;;;;;;;0.20;0.20;;;;;;;15.95;72.29;100531.13;5012351;28;20087;-72
2023/01/11 01:17:47;;;;;;;0.20;0.20;;;;;;;15.57;73.34;100532.38;5012662;28;20394;-72
2023/01/11 01:20:14;;;;;;;0.22;0.22;;;;;;;15.66;74.18;100528.09;5016605;28;20076;-73
2023/01/11 01:22:39;;;;;;;0.20;0.20;;;;;;;16.54;69.57;100530.44;5015877;28;20038;-72
2023/01/11 01:25:05;;;;;;;0.30;0.30;;;;;;;15.44;72.96;100530.97;5016330;28;20029;-72
2023/01/11 01:27:30;;;;;;;0.20;0.20;;;;;;;16.25;71.03;100528.47;5016074;28;20045;-72
2023/01/11 01:29:56;;;;;;;0.20;0.20;;;;;;;16.38;70.86;100536.91;5015699;28;20053;-72
2023/01/11 01:32:21;;;;;;;0.20;0.20;;;;;;;16.18;71.78;100530.63;5016295;28;20038;-71
2023/01/11 01:34:47;;;;;;;0.20;0.20;;;;;;;15.74;73.11;100531.06;4997724;28;20041;-71
2023/01/11 01:37:14;;;;;;;0.20;0.20;;;;;;;16.09;72.68;100533.06;5016490;28;20100;-72
2023/01/11 01:39:40;;;;;;;0.20;0.20;;;;;;;16.55;70.71;100532.03;5016735;28;20121;-72
2023/01/11 01:42:15;;;;;;;0.20;0.20;;;;;;;15.56;74.49;100533.47;5015712;28;20129;-72
2023/01/11 01:44:52;;;;;;;0.20;0.20;;;;;;;16.11;72.16;100532.81;5013888;28;20036;-71
2023/01/11 01:47:50;;;;;;;0.10;0.10;;;;;;;16.49;72.28;100521.47;5015406;28;20038;-73
2023/01/11 01:50:40;;;;;;;0.20;0.20;;;;;;;16.05;72.70;100531.16;5015369;28;20041;-73
2023/01/11 01:53:15;;;;;;;0.20;0.20;;;;;;;16.35;71.91;100523.06;5030778;28;20100;-72
2023/01/11 01:55:47;;;;;;;0.20;0.20;;;;;;;16.24;72.77;100535.78;5015302;28;20133;-72
2023/01/11 01:58:17;;;;;;;0.30;0.30;;;;;;;15.88;73.64;100536.81;5016055;28;20030;-73
2023/01/11 02:00:44;;;;;;;0.30;0.30;;;;;;;16.09;72.99;100526.84;5015939;28;20034;-73
2023/01/11 02:03:16;;;;;;;0.20;0.20;;;;;;;16.64;70.85;100526.88;5015609;28;20398;-71
2023/01/11 02:05:41;;;;;;;0.20;0.20;;;;;;;16.22;72.90;100527.13;5015977;28;20197;-73
2023/01/11 02:08:10;;;;;;;0.20;0.20;;;;;;;16.35;72.67;100526.56;4998152;28;20117;-72
2023/01/11 02:10:36;;;;;;;0.10;0.10;;;;;;;16.09;73.56;100527.66;5016162;28;20045;-73
2023/01/11 02:13:08;;;;;;;0.30;0.30;;;;;;;16.49;72.55;100524.19;5015647;28;20038;-72
2023/01/11 02:15:35;;;;;;;0.15;0.15;;;;;;;16.38;72.07;100527.94;5015898;28;20014;-72
2023/01/11 02:18:02;;;;;;;0.20;0.20;;;;;;;15.59;75.13;100522.09;5015250;28;20157;-73
2023/01/11 02:20:57;;;;;;;0.30;0.30;;;;;;;16.30;73.16;100534.72;5015426;28;20074;-73
2023/01/11 02:23:41;;;;;;;0.10;0.10;;;;;;;16.59;72.04;100522.28;4935143;29;20227;-73
2023/01/11 02:26:25;;;;;;;0.20;0.20;;;;;;;15.72;74.49;100519.69;4934695;29;20680;-74
2023/01/11 02:28:58;;;;;;;0.20;0.20;;;;;;;16.77;71.59;100515.47;4934480;28;20035;-73
2023/01/11 02:31:29;;;;;;;0.20;0.20;;;;;;;16.41;72.71;100520.06;4934633;28;20040;-72
2023/01/11 02:34:24;;;;;;;0.30;0.30;;;;;;;16.59;71.89;100514.13;4934774;28;20124;-71
2023/01/11 02:37:04;;;;;;;0.10;0.10;;;;;;;16.97;70.93;100509.19;4935418;29;20043;-73
2023/01/11 02:39:59;;;;;;;0.13;0.13;;;;;;;17.62;69.15;100511.72;4935438;29;20047;-73
2023/01/11 02:45:51;;;;;;;0.17;0.17;;;;;;;16.65;72.84;100515.75;4935168;29;20049;-72
2023/01/11 02:48:30;;;;;;;0.10;0.10;;;;;;;16.95;71.41;100511.38;4934612;28;20058;-73
2023/01/11 02:51:07;;;;;;;0.10;0.10;;;;;;;16.54;73.43;100514.16;4934906;28;20464;-74
2023/01/11 02:53:43;;;;;;;0.20;0.20;;;;;;;17.05;71.27;100512.16;4934773;28;20040;-72
2023/01/11 02:56:17;;;;;;;0.15;0.15;;;;;;;17.28;70.12;100513.44;4934353;28;20040;-71
2023/01/11 02:58:46;;;;;;;0.20;0.20;;;;;;;17.72;68.17;100513.56;4934656;29;20432;-72
2023/01/11 03:01:12;;;;;;;0.20;0.20;;;;;;;17.03;69.98;100525.19;4996786;28;20077;-72
2023/01/11 03:03:38;;;;;;;0.20;0.20;;;;;;;16.91;71.00;100521.16;5015064;28;20029;-73
2023/01/11 03:06:10;;;;;;;0.10;0.10;;;;;;;17.47;69.13;100519.91;5014152;28;20038;-72
2023/01/11 03:09:08;;;;;;;0.20;0.20;;;;;;;16.77;71.72;100525.50;5014433;28;20034;-72
2023/01/11 03:14:41;;;;;;;0.20;0.20;;;;;;;17.21;71.07;100534.66;4934365;28;20083;-73
2023/01/11 03:17:25;;;;;;;0.10;0.10;;;;;;;16.33;74.77;100539.59;4934378;28;20082;-72
2023/01/11 03:20:06;;;;;;;0.10;0.10;;;;;;;16.10;75.70;100536.56;4934427;29;20126;-74
2023/01/11 03:22:56;;;;;;;0.20;0.20;;;;;;;16.82;72.98;100528.22;4934241;28;20052;-73
2023/01/11 03:25:38;;;;;;;0.10;0.10;;;;;;;17.21;72.32;100529.22;4934622;28;20044;-74
2023/01/11 03:28:29;;;;;;;0.20;0.20;;;;;;;17.39;70.28;100534.06;4934069;29;20115;-73
2023/01/11 03:31:10;;;;;;;0.10;0.10;;;;;;;17.29;70.85;100545.78;4934407;29;20119;-72
2023/01/11 03:33:45;;;;;;;0.20;0.20;;;;;;;16.96;72.40;100538.22;4934553;29;20051;-73
2023/01/11 03:36:13;;;;;;;0.20;0.20;;;;;;;16.91;72.23;100537.44;4934274;29;20082;-72
2023/01/11 03:39:00;;;;;;;0.22;0.22;;;;;;;17.21;71.66;100550.94;4933516;29;20047;-73
2023/01/11 03:41:32;;;;;;;0.20;0.20;;;;;;;17.01;73.05;100542.84;4932851;29;20051;-71
2023/01/11 03:44:02;;;;;;;0.20;0.20;;;;;;;16.85;73.37;100557.53;4933369;29;20040;-73
2023/01/11 03:46:35;;;;;;;0.20;0.20;;;;;;;16.44;75.87;100556.69;4933126;29;20036;-72
2023/01/11 03:49:14;;;;;;;0.20;0.20;;;;;;;16.85;74.58;100554.81;4969703;28;20065;-72
2023/01/11 03:51:45;;;;;;;0.20;0.20;;;;;;;17.05;73.53;100549.34;5012508;28;20045;-72
2023/01/11 03:54:19;;;;;;;0.17;0.17;;;;;;;16.67;75.77;100564.31;5013508;28;20033;-72
2023/01/11 03:57:19;;;;;;;0.20;0.20;;;;;;;16.58;76.58;100574.91;5013664;28;20385;-72
2023/01/11 03:59:44;;;;;;;0.10;0.10;;;;;;;16.48;76.64;100574.06;5013413;28;20049;-73
2023/01/11 04:02:15;;;;;;;0.10;0.10;;;;;;;16.32;77.91;100556.97;5013811;28;20442;-70
2023/01/11 04:04:41;;;;;;;0.15;0.15;;;;;;;16.60;75.69;100566.50;5014157;28;20065;-73
2023/01/11 04:07:06;;;;;;;0.10;0.10;;;;;;;16.90;73.90;100585.50;5013932;28;20045;-72
2023/01/11 04:09:31;;;;;;;0.30;0.30;;;;;;;16.54;76.25;100568.41;5013998;28;20041;-72
2023/01/11 04:11:57;;;;;;;0.10;0.10;;;;;;;16.10;77.41;100578.06;4995634;28;20355;-72
2023/01/11 04:14:22;;;;;;;0.10;0.10;;;;;;;16.35;77.72;100572.69;5013573;28;20056;-72
2023/01/11 04:16:47;;;;;;;0.20;0.20;;;;;;;16.57;75.41;100586.00;5013914;28;20485;-72
2023/01/11 04:19:13;;;;;;;0.30;0.30;;;;;;;17.36;73.85;100580.78;5013612;28;20034;-73
2023/01/11 04:21:38;;;;;;;0.20;0.20;;;;;;;16.86;74.14;100576.28;5013607;28;20358;-73
2023/01/11 04:24:04;;;;;;;0.20;0.20;;;;;;;16.58;75.29;100580.34;5013419;28;20046;-73
2023/01/11 04:26:29;;;;;;;0.20;0.20;;;;;;;16.63;74.20;100582.22;5012764;28;20033;-71
2023/01/11 04:28:54;;;;;;;0.20;0.20;;;;;;;16.55;74.87;100585.47;5013092;28;20037;-72
2023/01/11 04:31:20;;;;;;;0.20;0.20;;;;;;;16.53;74.83;100591.19;4996033;28;20042;-72
2023/01/11 04:33:45;;;;;;;0.20;0.20;;;;;;;16.94;73.64;100585.75;5013530;28;20045;-72
2023/01/11 04:36:12;;;;;;;0.30;0.30;;;;;;;16.81;74.12;100584.41;5012512;28;20037;-72
2023/01/11 04:38:37;;;;;;;0.20;0.20;;;;;;;16.79;74.40;100602.03;5012506;28;20065;-71
2023/01/11 04:43:47;;;;;;;0.30;0.30;;;;;;;16.88;73.94;100609.38;5012450;28;20141;-72
2023/01/11 04:46:13;;;;;;;0.30;0.30;;;;;;;17.26;71.98;100606.06;5013400;28;20038;-72
2023/01/11 04:48:39;;;;;;;0.20;0.20;;;;;;;16.76;74.83;100614.25;5013169;28;20041;-72
2023/01/11 04:51:06;;;;;;;0.15;0.15;;;;;;;16.91;73.58;100618.88;5013360;28;20034;-73
2023/01/11 04:53:31;;;;;;;0.20;0.20;;;;;;;17.06;73.04;100622.38;5012572;28;20041;-72
2023/01/11 04:56:04;;;;;;;0.20;0.20;;;;;;;16.97;74.09;100624.03;5012764;28;20050;-72
2023/01/11 04:58:31;;;;;;;0.10;0.10;;;;;;;17.57;71.37;100623.16;5013000;28;20030;-72
2023/01/11 05:00:56;;;;;;;0.20;0.20;;;;;;;17.19;72.69;100624.56;5011373;28;20030;-73
2023/01/11 05:03:22;;;;;;;0.10;0.10;;;;;;;17.22;72.61;100628.59;5012453;28;20041;-74
2023/01/11 05:05:57;;;;;;;0.20;0.20;;;;;;;17.35;72.33;100620.72;5012638;28;20030;-73
2023/01/11 05:08:28;;;;;;;0.00;0.00;;;;;;;16.50;75.57;100628.88;4994755;28;20037;-72
2023/01/11 05:10:55;;;;;;;0.10;0.10;;;;;;;16.96;74.33;100627.03;5006464;28;20406;-73
2023/01/11 05:13:21;;;;;;;0.20;0.20;;;;;;;17.28;72.23;100622.06;5012652;28;20034;-73
2023/01/11 05:15:47;;;;;;;0.10;0.10;;;;;;;16.68;74.04;100628.38;5013298;28;20112;-73
2023/01/11 05:18:12;;;;;;;0.10;0.10;;;;;;;16.66;74.08;100627.81;5012870;28;20030;-72
2023/01/11 05:20:38;;;;;;;0.20;0.20;;;;;;;17.26;72.25;100626.97;5013271;28;20065;-72
2023/01/11 05:23:03;;;;;;;0.20;0.20;;;;;;;17.28;71.67;100625.63;5012930;28;20057;-73
2023/01/11 05:25:28;;;;;;;0.20;0.20;;;;;;;17.38;71.27;100627.50;5012700;28;20050;-73
2023/01/11 05:27:54;;;;;;;0.30;0.30;;;;;;;18.22;69.07;100622.06;5011009;28;20049;-72
2023/01/11 05:30:19;;;;;;;0.20;0.20;;;;;;;17.26;71.86;100633.22;4994859;28;20501;-73
2023/01/11 05:32:44;;;;;;;0.17;0.17;;;;;;;17.56;70.45;100643.25;5012807;28;20030;-72
2023/01/11 05:35:10;;;;;;;0.17;0.17;;;;;;;17.39;70.28;100648.16;5012993;28;20041;-72
2023/01/11 05:37:37;;;;;;;0.20;0.20;;;;;;;17.00;72.64;100652.53;5012782;28;20030;-71
2023/01/11 05:40:04;;;;;;;0.30;0.30;;;;;;;17.21;72.26;100654.97;5012952;28;20037;-73
2023/01/11 05:42:29;;;;;;;0.20;0.20;;;;;;;17.26;70.82;100652.22;5012927;28;20042;-73
2023/01/11 05:47:39;;;;;;;0.20;0.20;;;;;;;17.49;70.61;100664.47;5012207;28;20064;-74
2023/01/11 05:50:04;;;;;;;0.30;0.30;;;;;;;17.51;70.81;100660.38;5012105;28;20046;-73
2023/01/11 05:52:30;;;;;;;0.20;0.20;;;;;;;17.54;69.75;100659.00;5012699;28;20045;-73
2023/01/11 05:54:57;;;;;;;0.10;0.10;;;;;;;17.13;71.27;100666.38;4995243;28;20030;-72
2023/01/11 05:57:22;;;;;;;0.35;0.35;;;;;;;17.10;72.94;100677.75;5013220;28;20076;-72
2023/01/11 05:59:48;;;;;;;0.40;0.40;;;;;;;17.52;69.84;100672.88;5027722;28;20038;-73
2023/01/11 06:02:13;;;;;;;0.40;0.40;;;;;;;17.60;68.85;100668.78;5010560;28;20053;-74
2023/01/11 06:04:38;;;;;;;0.30;0.30;;;;;;;17.55;69.66;100674.25;5014828;28;20030;-72
2023/01/11 06:07:05;;;;;;;0.30;0.30;;;;;;;17.73;69.17;100672.84;4998116;28;20675;-74
2023/01/11 06:09:30;;;;;;;0.30;0.30;;;;;;;17.37;70.28;100672.06;5013717;28;20022;-73
2023/01/11 06:11:55;;;;;;;0.40;0.40;;;;;;;17.70;68.50;100673.38;5015636;28;20045;-73
2023/01/11 06:14:21;;;;;;;0.20;0.20;;;;;;;17.32;69.62;100667.44;5015318;28;20084;-72
2023/01/11 06:16:46;;;;;;;0.20;0.20;;;;;;;17.07;70.44;100666.66;5015341;28;20050;-74
2023/01/11 06:19:12;;;;;;;0.30;0.30;;;;;;;17.39;69.40;100661.75;5011807;28;20076;-74
2023/01/11 06:21:37;;;;;;;0.20;0.20;;;;;;;17.40;69.06;100666.88;5016465;28;20030;-74
2023/01/11 06:24:03;;;;;;;0.38;0.38;;;;;;;17.41;70.08;100670.44;5015457;28;20038;-74
2023/01/11 06:26:28;;;;;;;0.30;0.30;;;;;;;16.92;70.18;100669.38;5014158;28;20056;-73
2023/01/11 06:28:54;;;;;;;0.20;0.20;;;;;;;18.01;67.34;100667.56;5013531;28;20406;-73
2023/01/11 06:31:19;;;;;;;0.10;0.10;;;;;;;17.63;68.07;100664.72;5014906;28;20034;-74
2023/01/11 06:33:45;;;;;;;0.30;0.30;;;;;;;17.71;68.45;100675.81;5015063;28;20049;-72
2023/01/11 06:36:12;;;;;;;0.32;0.32;;;;;;;17.45;68.30;100677.72;5014318;28;20041;-74
2023/01/11 06:38:38;;;;;;;0.20;0.20;;;;;;;17.43;68.91;100673.69;5014454;28;20033;-73
2023/01/11 06:41:07;;;;;;;0.30;0.20;;;;;;;17.72;67.67;100680.16;5014452;28;20041;-73
2023/01/11 06:43:32;;;;;;;0.20;0.20;;;;;;;17.01;70.15;100694.88;5012600;28;20034;-73
2023/01/11 06:45:58;;;;;;;0.20;0.20;;;;;;;17.93;66.92;100699.94;5015234;28;20085;-72
2023/01/11 06:48:24;;;;;;;0.30;0.30;;;;;;;16.72;70.90;100712.75;5015852;28;20029;-73
2023/01/11 06:50:52;;;;;;;0.30;0.30;;;;;;;17.22;69.50;100713.63;5013776;28;20038;-72
2023/01/11 06:53:18;;;;;;;0.20;0.20;;;;;;;16.87;70.66;100719.03;5009676;28;20038;-75
2023/01/11 06:55:43;;;;;;;0.22;0.22;;;;;;;16.60;71.86;100721.97;5007161;28;20848;-74
2023/01/11 06:58:09;;;;;;;0.30;0.30;;;;;;;16.51;72.55;100726.25;5015181;28;20105;-74
2023/01/11 07:00:34;;;;;;;0.28;0.28;;;;;;;17.25;69.47;100729.38;5013739;28;20069;-73
2023/01/11 07:03:03;;;;;;;0.30;0.30;;;;;;;17.30;70.21;100729.38;5014982;28;20609;-73
2023/01/11 07:05:28;;;;;;;0.28;0.28;;;;;;;17.35;69.00;100729.38;5011968;28;20085;-73
2023/01/11 07:07:54;;;;;;;0.40;0.40;;;;;;;17.20;68.89;100732.09;5012207;28;20068;-73
2023/01/11 07:10:19;;;;;;;0.20;0.20;;;;;;;17.00;69.52;100745.63;5014958;28;20494;-73
2023/01/11 07:12:45;;;;;;;0.20;0.20;;;;;;;16.32;72.12;100743.25;5013704;28;20049;-73
2023/01/11 07:15:10;;;;;;;0.40;0.40;;;;;;;16.45;71.59;100748.22;5014730;28;20038;-74
2023/01/11 07:17:36;;;;;;;0.35;0.35;;;;;;;16.67;70.09;100733.38;5015129;28;20034;-75
2023/01/11 07:20:03;;;;;;;0.20;0.20;;;;;;;16.46;70.93;100747.94;5015512;28;20067;-75
2023/01/11 07:22:33;;;;;;;0.35;0.35;;;;;;;16.77;69.29;100739.88;5015624;28;20036;-75
2023/01/11 07:24:58;;;;;;;0.30;0.30;;;;;;;16.81;68.87;100752.66;5015506;28;20037;-76
2023/01/11 07:27:23;;;;;;;0.28;0.28;;;;;;;16.86;68.46;100755.41;5023103;28;20030;-77
2023/01/11 07:30:26;;;;;;;0.30;0.30;;;;;;;17.20;67.52;100761.13;5016248;28;20239;-75
2023/01/11 07:32:52;;;;;;;0.25;0.25;;;;;;;16.93;68.57;100768.69;5015020;28;20069;-76
2023/01/11 07:35:17;;;;;;;0.20;0.20;;;;;;;16.29;70.24;100779.06;5016595;28;20045;-78
2023/01/11 07:37:44;;;;;;;0.20;0.20;;;;;;;15.92;71.76;100768.25;5016051;28;20034;-77
2023/01/11 07:40:10;;;;;;;0.30;0.30;;;;;;;16.83;68.47;100774.09;5015601;28;20024;-73
2023/01/11 07:45:20;;;;;;;0.20;0.20;;;;;;;16.39;68.61;100798.09;5014234;28;20158;-74
2023/01/11 07:47:49;;;;;;;0.30;0.30;;;;;;;16.57;68.75;100805.75;5014722;28;20025;-74
2023/01/11 07:50:15;;;;;;;0.20;0.20;;;;;;;16.34;68.92;100808.88;4996978;28;20034;-73
2023/01/11 07:52:46;;;;;;;0.20;0.20;;;;;;;15.56;71.51;100817.88;5013002;28;20466;-74
2023/01/11 07:55:12;;;;;;;0.20;0.20;;;;;;;16.16;69.27;100831.03;5014078;28;20036;-75
2023/01/11 07:57:37;;;;;;;0.30;0.30;;;;;;;16.03;70.09;100820.66;5014656;28;20026;-73
2023/01/11 08:00:40;;;;;;;0.20;0.20;;;;;;;15.87;70.73;100824.31;5014595;28;20394;-75
2023/01/11 08:03:06;;;;;;;0.30;0.30;;;;;;;15.83;69.36;100824.84;5014486;28;20113;-75
2023/01/11 08:05:31;;;;;;;0.30;0.30;;;;;;;16.32;68.69;100821.91;5012839;28;20187;-75
2023/01/11 08:07:57;;;;;;;0.20;0.20;;;;;;;15.96;69.81;100823.56;5014031;28;20550;-73
2023/01/11 08:10:23;;;;;;;0.30;0.30;;;;;;;16.13;68.29;100820.72;5014359;28;20046;-75
2023/01/11 08:15:35;;;;;;;0.30;0.30;;;;;;;16.45;67.39;100821.44;5014487;28;20442;-73
2023/01/11 08:18:02;;;;;;;0.20;0.20;;;;;;;15.92;67.94;100821.66;5012976;28;20026;-74
2023/01/11 08:20:28;;;;;;;0.40;0.40;;;;;;;15.82;67.90;100822.41;5014295;28;20113;-74
2023/01/11 08:22:54;;;;;;;0.30;0.30;;;;;;;15.86;67.99;100833.53;5013763;28;20097;-73
2023/01/11 08:25:19;;;;;;;0.40;0.40;;;;;;;16.08;66.57;100837.75;5013817;28;20057;-72
2023/01/11 08:27:45;;;;;;;0.22;0.22;;;;;;;15.90;67.69;100846.28;5013431;28;20076;-73
2023/01/11 08:30:11;;;;;;;0.20;0.20;;;;;;;15.77;68.46;100849.47;5013829;28;20046;-73
2023/01/11 08:32:36;;;;;;;0.40;0.40;;;;;;;16.39;66.23;100858.53;5013733;28;20053;-72
2023/01/11 08:35:02;;;;;;;0.30;0.30;;;;;;;15.61;68.35;100856.63;5014030;28;20034;-74
2023/01/11 08:37:27;;;;;;;0.20;0.20;;;;;;;15.83;67.56;100867.38;5013454;28;20421;-73
2023/01/11 08:39:54;;;;;;;0.32;0.32;;;;;;;16.55;66.45;100879.28;5014710;28;20022;-73
2023/01/11 08:42:20;;;;;;;0.20;0.20;;;;;;;15.88;67.32;100882.88;5014416;28;20447;-72
2023/01/11 08:44:45;;;;;;;0.30;0.30;;;;;;;16.30;66.08;100881.84;5013822;28;20037;-72
2023/01/11 08:47:11;;;;;;;0.20;0.20;;;;;;;16.10;65.78;100889.00;5013783;28;20026;-73
2023/01/11 08:49:36;;;;;;;0.40;0.40;;;;;;;15.91;66.92;100894.00;5013509;28;20123;-72
2023/01/11 08:52:02;;;;;;;0.25;0.25;;;;;;;15.41;68.29;100888.91;5013323;28;20037;-73
2023/01/11 08:54:28;;;;;;;0.20;0.20;;;;;;;15.75;66.69;100900.38;5013317;28;20057;-73
2023/01/11 08:56:54;;;;;;;0.25;0.25;;;;;;;15.93;66.90;100904.59;5013294;28;20419;-73
2023/01/11 08:59:21;;;;;;;0.40;0.40;;;;;;;15.96;66.91;100906.81;5013067;28;20069;-74
2023/01/11 09:01:46;;;;;;;0.30;0.30;;;;;;;15.99;66.73;100909.81;5013898;28;20096;-71
2023/01/11 09:04:12;;;;;;;0.30;0.30;;;;;;;15.29;67.98;100917.22;4995932;28;20124;-74
2023/01/11 09:06:37;;;;;;;0.30;0.30;;;;;;;15.42;67.72;100916.84;4996552;28;20041;-73
2023/01/11 09:09:03;;;;;;;0.20;0.20;;;;;;;15.65;66.14;100920.06;5013569;28;20038;-73
2023/01/11 09:14:12;;;;;;;0.25;0.25;;;;;;;15.17;67.56;100927.38;5013624;28;20092;-74
2023/01/11 09:16:38;;;;;;;0.32;0.32;;;;;;;14.76;68.13;100926.06;5013625;28;20077;-73
2023/01/11 09:19:03;;;;;;;0.30;0.30;;;;;;;14.80;67.70;100928.00;5014094;28;20474;-73
2023/01/11 09:21:29;;;;;;;0.40;0.40;;;;;;;15.49;65.88;100928.28;5013791;28;20045;-71
2023/01/11 09:23:55;;;;;;;0.20;0.20;;;;;;;15.27;66.75;100928.28;5013011;28;20065;-72
2023/01/11 09:26:20;;;;;;;0.20;0.20;;;;;;;15.27;66.58;100922.09;4994858;28;20451;-74
2023/01/11 09:28:46;;;;;;;0.30;0.30;;;;;;;15.91;64.24;100933.84;5012701;28;20034;-73
2023/01/11 09:31:11;;;;;;;0.30;0.30;;;;;;;15.39;65.98;100941.72;5012609;28;20038;-76
2023/01/11 09:33:39;;;;;;;0.30;0.30;;;;;;;15.06;67.09;100934.53;5013029;28;20056;-75
2023/01/11 09:36:05;;;;;;;0.30;0.30;;;;;;;15.48;66.48;100951.88;5011771;28;20113;-73
2023/01/11 09:38:32;;;;;;;0.40;0.40;;;;;;;15.69;65.23;100940.16;5012538;28;20030;-74
2023/01/11 09:41:07;;;;;;;0.32;0.32;;;;;;;15.57;65.23;100942.19;5015967;28;20030;-72
2023/01/11 09:43:39;;;;;;;0.30;0.30;;;;;;;15.05;67.30;100937.50;5015742;28;20406;-75
2023/01/11 09:46:07;;;;;;;0.25;0.25;;;;;;;15.35;66.38;100937.88;5016759;28;20034;-74
2023/01/11 09:48:50;;;;;;;0.30;0.30;;;;;;;14.95;66.77;100949.84;5016508;28;20502;-73
2023/01/11 09:51:18;;;;;;;0.30;0.30;;;;;;;15.23;67.63;100951.56;5016599;28;20046;-74
2023/01/11 09:53:49;;;;;;;0.30;0.30;;;;;;;15.22;67.07;100955.31;5015904;28;20048;-72
2023/01/11 09:56:22;;;;;;;0.20;0.20;;;;;;;15.68;66.14;100954.75;5016387;28;20033;-73
2023/01/11 09:59:08;;;;;;;0.20;0.20;;;;;;;15.01;69.14;100955.31;5031359;28;20045;-74
2023/01/11 10:01:48;;;;;;;0.22;0.22;;;;;;;15.21;68.38;100961.81;5016016;28;20121;-72
2023/01/11 10:04:40;;;;;;;0.47;0.47;;;;;;;15.23;67.60;100975.09;5012068;28;20034;-74
2023/01/11 10:07:11;;;;;;;0.20;0.20;;;;;;;15.32;67.23;100968.97;5010362;28;20037;-74
2023/01/11 10:09:55;;;;;;;0.15;0.15;;;;;;;15.05;68.64;100964.56;5012299;28;20056;-74
2023/01/11 10:12:35;;;;;;;0.30;0.30;;;;;;;15.23;68.06;100961.56;5012383;28;20042;-74
2023/01/11 10:15:46;;;;;;;0.20;0.20;;;;;;;14.25;71.41;100970.41;5012284;28;20026;-76
2023/01/11 10:18:47;;;;;;;0.40;0.40;;;;;;;14.15;71.97;100970.28;4938898;29;20031;-74
2023/01/11 10:21:41;;;;;;;0.30;0.30;;;;;;;15.00;69.36;100964.53;4951602;28;20071;-73
2023/01/11 10:24:22;;;;;;;0.40;0.40;;;;;;;14.21;72.01;100969.25;4951578;28;20121;-73
2023/01/11 10:26:51;;;;;;;0.30;0.30;;;;;;;14.22;70.86;100979.03;4935771;28;20059;-74
2023/01/11 10:39:16;;;;;;;0.30;0.30;;;;;;;14.47;69.99;100973.22;4802362;29;20031;-74
2023/01/11 10:41:56;;;;;;;0.22;0.22;;;;;;;14.22;70.65;100972.78;4775702;29;20056;-74
2023/01/11 10:44:33;;;;;;;0.30;0.30;;;;;;;14.84;68.70;100974.28;4766258;30;20039;-72
2023/01/11 10:47:01;;;;;;;0.30;0.30;;;;;;;14.25;68.71;100980.44;4766084;30;20557;-74
2023/01/11 10:49:48;;;;;;;0.22;0.22;;;;;;;14.30;69.56;100981.34;4762494;30;20063;-74
2023/01/11 10:52:27;;;;;;;0.25;0.25;;;;;;;14.00;70.23;100981.63;4747400;30;20048;-74
2023/01/11 10:54:56;;;;;;;0.30;0.30;;;;;;;14.42;67.82;100982.09;4756457;30;20048;-73
2023/01/11 10:58:15;;;;;;;0.38;0.38;;;;;;;14.33;68.23;100983.56;4765456;30;20059;-73
2023/01/11 11:01:07;;;;;;;0.30;0.30;;;;;;;15.34;65.16;100979.56;4742070;30;20067;-73
2023/01/11 11:03:40;;;;;;;0.20;0.20;;;;;;;14.30;67.42;100985.94;4747897;30;20060;-75
2023/01/11 11:06:36;;;;;;;0.35;0.35;;;;;;;14.13;67.27;100986.72;4747388;30;20056;-75
2023/01/11 11:09:12;;;;;;;0.30;0.30;;;;;;;14.27;67.36;100991.81;4747076;30;20075;-75
2023/01/11 11:11:47;;;;;;;0.25;0.25;;;;;;;14.17;67.56;100997.84;4750766;30;20062;-74
2023/01/11 11:14:29;;;;;;;0.30;0.30;;;;;;;14.37;67.48;100994.72;4776681;29;20169;-73
2023/01/11 11:17:13;;;;;;;0.30;0.30;;;;;;;14.59;66.89;101003.69;4837117;29;20559;-73
2023/01/11 11:19:39;;;;;;;0.40;0.40;;;;;;;14.56;66.90;100996.91;4893630;29;20237;-73
2023/01/11 11:22:04;;;;;;;0.30;0.30;;;;;;;13.99;67.92;101033.22;4891935;29;20049;-73
2023/01/11 11:24:38;;;;;;;0.20;0.20;;;;;;;13.92;67.81;101000.94;4910568;29;20123;-73
2023/01/11 11:27:24;;;;;;;0.50;0.50;;;;;;;14.81;65.76;100997.28;4912108;29;20059;-73
2023/01/11 11:29:54;;;;;;;0.40;0.40;;;;;;;14.85;65.49;101003.00;4910859;29;20048;-73
2023/01/11 11:32:25;;;;;;;0.30;0.30;;;;;;;14.58;65.88;101002.91;4911556;29;20048;-74
2023/01/11 11:34:52;;;;;;;0.32;0.32;;;;;;;14.38;66.34;101005.28;4980718;28;20045;-74
2023/01/11 11:37:24;;;;;;;0.40;0.40;;;;;;;14.43;65.98;101008.03;5009433;28;20561;-71
2023/01/11 11:39:51;;;;;;;0.30;0.30;;;;;;;14.96;63.44;101011.00;5009894;28;20041;-72
2023/01/11 11:42:20;;;;;;;0.38;0.38;;;;;;;15.56;62.11;101002.88;5010549;28;20042;-72
2023/01/11 11:45:09;;;;;;;0.22;0.22;;;;;;;14.83;64.19;100995.16;5010138;28;20124;-73
2023/01/11 11:47:35;;;;;;;0.30;0.30;;;;;;;14.52;63.96;100995.78;4991986;28;20046;-73
2023/01/11 11:50:20;;;;;;;0.20;0.20;;;;;;;14.71;63.82;101007.13;5009347;28;20153;-73
2023/01/11 11:53:37;;;;;;;0.30;0.30;;;;;;;14.68;63.60;101008.44;5009156;28;20100;-74
2023/01/11 11:56:28;;;;;;;0.30;0.30;;;;;;;14.45;64.94;101014.03;4939410;29;20135;-73
2023/01/11 11:58:55;;;;;;;0.20;0.20;;;;;;;14.59;63.24;101011.81;4948098;28;20133;-73
2023/01/11 12:01:48;;;;;;;0.30;0.30;;;;;;;14.52;64.60;101009.28;4932180;28;20035;-73
2023/01/11 12:04:23;;;;;;;0.40;0.40;;;;;;;14.57;63.29;101006.66;4949340;28;20059;-74
2023/01/11 12:07:10;;;;;;;0.40;0.40;;;;;;;13.97;64.86;101027.22;4949535;29;20039;-74
2023/01/11 12:09:38;;;;;;;0.40;0.40;;;;;;;13.83;64.73;100993.47;4932208;29;20032;-72
2023/01/11 12:12:04;;;;;;;0.30;0.30;;;;;;;14.41;63.45;100995.81;4913482;29;20424;-70
2023/01/11 12:14:33;;;;;;;0.30;0.30;;;;;;;14.52;62.75;101000.34;4942356;29;20053;-72
2023/01/11 12:17:14;;;;;;;0.40;0.40;;;;;;;15.13;60.71;101005.56;4933313;29;20043;-72
2023/01/11 12:19:43;;;;;;;0.20;0.20;;;;;;;15.16;60.11;100996.94;4929508;29;20426;-70